createdAt,value
2023-01-10T06:05:11.191Z,100523.61
2023-01-10T06:07:40.305Z,100533.97
2023-01-10T06:10:08.940Z,100543.58
2023-01-10T06:12:35.746Z,100543.30
2023-01-10T06:15:04.189Z,100547.80
2023-01-10T06:17:31.235Z,100547.41
2023-01-10T06:19:58.091Z,100527.05
2023-01-10T06:22:43.813Z,100532.92
2023-01-10T06:25:11.447Z,100545.88
2023-01-10T06:27:42.016Z,100549.73
2023-01-10T06:30:10.231Z,100546.98
2023-01-10T06:32:37.164Z,100545.70
2023-01-10T06:35:04.365Z,100553.17
2023-01-10T06:37:31.187Z,100547.25
2023-01-10T06:39:58.199Z,100551.84
2023-01-10T06:42:25.143Z,100552.36
2023-01-10T06:44:52.297Z,100560.88
2023-01-10T06:47:19.179Z,100568.17
2023-01-10T06:49:46.061Z,100551.67
2023-01-10T06:52:12.859Z,100558.36
2023-01-10T06:54:41.475Z,100569.36
2023-01-10T06:57:08.673Z,100569.90
2023-01-10T06:59:35.597Z,100573.94
2023-01-10T07:02:02.557Z,100572.64
2023-01-10T07:04:29.584Z,100579.63
2023-01-10T07:06:56.520Z,100576.52
2023-01-10T07:09:23.411Z,100587.89
2023-01-10T07:11:50.397Z,100592.77
2023-01-10T07:14:17.361Z,100594.77
2023-01-10T07:16:44.223Z,100601.78
2023-01-10T07:19:13.530Z,100606.63
2023-01-10T07:21:40.442Z,100605.13
2023-01-10T07:24:08.440Z,100604.52
2023-01-10T07:26:36.130Z,100607.05
2023-01-10T07:29:03.664Z,100616.83
2023-01-10T07:31:30.482Z,100617.60
2023-01-10T07:33:58.108Z,100622.31
2023-01-10T07:36:24.904Z,100616.02
2023-01-10T07:38:51.864Z,100609.02
2023-01-10T07:41:18.679Z,100615.30
2023-01-10T07:43:45.500Z,100618.48
2023-01-10T07:46:12.628Z,100622.64
2023-01-10T07:48:41.914Z,100624.86
2023-01-10T07:51:08.987Z,100619.72
2023-01-10T07:53:35.831Z,100622.69
2023-01-10T12:11:31.594Z,100632.98
2023-01-10T12:14:00.221Z,100624.17
2023-01-10T12:16:31.882Z,100625.14
2023-01-10T12:19:02.994Z,100624.55
2023-01-10T12:21:39.835Z,100617.51
2023-01-10T12:24:12.464Z,100630.01
2023-01-10T12:26:39.260Z,100628.72
2023-01-10T12:29:09.108Z,100634.48
2023-01-10T12:31:36.813Z,100638.40
2023-01-10T12:34:07.776Z,100642.33
2023-01-10T12:36:56.189Z,100636.94
2023-01-10T12:39:27.070Z,100647.28
2023-01-10T12:42:27.996Z,100643.97
2023-01-10T12:44:58.092Z,100658.49
2023-01-10T12:47:24.993Z,100667.88
2023-01-10T12:49:56.792Z,100676.37
2023-01-10T12:52:49.111Z,100678.13
2023-01-10T12:55:17.676Z,100684.73
2023-01-10T12:57:51.587Z,100687.81
2023-01-10T13:00:19.541Z,100683.17
2023-01-10T13:02:46.809Z,100680.73
2023-01-10T13:05:20.002Z,100683.08
2023-01-10T13:07:47.608Z,100685.27
2023-01-10T13:10:20.548Z,100688.46
2023-01-10T13:12:49.653Z,100682.94
2023-01-10T13:15:35.326Z,100674.83
2023-01-10T13:18:15.708Z,100678.23
2023-01-10T13:20:42.740Z,100681.48
2023-01-10T13:23:15.607Z,100685.95
2023-01-10T13:25:42.570Z,100683.05
2023-01-10T13:28:19.778Z,100685.78
2023-01-10T13:30:53.075Z,100681.08
2023-01-10T13:33:22.752Z,100681.59
2023-01-10T13:35:49.622Z,100684.10
2023-01-10T13:38:46.279Z,100686.33
2023-01-10T13:41:33.021Z,100683.48
2023-01-10T13:44:04.476Z,100688.75
2023-01-10T13:46:31.274Z,100692.30
2023-01-10T13:49:00.418Z,100684.36
2023-01-10T13:51:27.628Z,100693.77
2023-01-10T13:54:03.628Z,100683.70
2023-01-10T13:56:34.521Z,100684.04
2023-01-10T13:59:20.083Z,100688.89
2023-01-10T14:02:10.111Z,100692.73
2023-01-10T14:04:39.264Z,100685.58
2023-01-10T14:07:18.247Z,100688.85
2023-01-10T14:09:46.077Z,100687.00
2023-01-10T14:12:23.784Z,100686.92
2023-01-10T14:15:06.046Z,100686.59
2023-01-10T14:17:34.830Z,100682.73
2023-01-10T14:20:06.347Z,100690.06
2023-01-10T14:22:37.486Z,100687.89
2023-01-10T14:25:20.608Z,100698.92
2023-01-10T14:27:48.194Z,100702.20
2023-01-10T14:30:29.228Z,100705.17
2023-01-10T14:32:58.048Z,100700.08
2023-01-10T14:35:32.625Z,100709.14
2023-01-10T14:37:59.601Z,100709.09
2023-01-10T14:40:32.454Z,100703.50
2023-01-10T14:43:02.879Z,100703.60
2023-01-10T14:45:35.165Z,100701.80
2023-01-10T14:48:37.902Z,100698.73
2023-01-10T14:51:08.767Z,100701.61
2023-01-10T14:53:35.597Z,100689.57
2023-01-10T14:56:02.403Z,100698.16
2023-01-10T14:58:29.252Z,100698.89
2023-01-10T15:00:56.158Z,100705.05
2023-01-10T15:03:24.603Z,100703.36
2023-01-10T15:05:55.165Z,100701.59
2023-01-10T15:08:30.279Z,100714.08
2023-01-10T15:11:02.408Z,100715.36
2023-01-10T15:13:30.353Z,100721.48
2023-01-10T15:15:57.209Z,100717.14
2023-01-10T15:18:36.469Z,100717.19
2023-01-10T15:21:03.384Z,100710.50
2023-01-10T15:23:36.689Z,100712.53
2023-01-10T15:26:06.219Z,100704.79
2023-01-10T15:28:35.885Z,100710.21
2023-01-10T15:31:06.341Z,100712.80
2023-01-10T15:33:34.597Z,100717.66
2023-01-10T15:36:04.680Z,100728.72
2023-01-10T15:38:34.235Z,100728.63
2023-01-10T15:41:02.716Z,100722.80
2023-01-10T15:43:32.773Z,100722.17
2023-01-10T15:46:00.757Z,100718.77
2023-01-10T15:48:39.027Z,100716.32
2023-01-10T15:51:27.394Z,100714.84
2023-01-10T15:54:03.177Z,100715.56
2023-01-10T15:56:32.434Z,100710.58
2023-01-10T15:58:59.395Z,100715.85
2023-01-10T16:01:28.664Z,100721.58
2023-01-10T23:16:22.463Z,100954.66
2023-01-10T23:18:49.588Z,100954.09
2023-01-10T23:21:16.705Z,100949.42
2023-01-10T23:23:43.634Z,100941.35
2023-01-10T23:26:11.611Z,100934.38
2023-01-10T23:28:40.941Z,100937.03
2023-01-10T23:31:08.552Z,100942.73
2023-01-10T23:33:35.505Z,100949.34
2023-01-10T23:36:02.531Z,100954.73
2023-01-10T23:38:29.404Z,100957.36
2023-01-10T23:40:56.314Z,100954.64
2023-01-10T23:43:23.768Z,100965.17
2023-01-10T23:45:50.827Z,100966.14
2023-01-10T23:48:17.952Z,100969.04
2023-01-10T23:50:49.707Z,100973.98
2023-01-10T23:53:17.418Z,100975.26
2023-01-10T23:55:44.261Z,100964.20
2023-01-10T23:58:11.146Z,100970.16
